الصفحة الرئيسية
METAR-TAF:

METAR-TAF

مطار :

مطار أثينا الدولي

أثينا, اليونان

دائرة عرض: 37-56N, خط طول: 023-56E, ارتفاع: 94 متر

مراقبة الطقس الحالي

تاريخ ووقت الإصدار 24 دقيقة قبل الساعة 19:50UTC
ريح 2 عقدة من الجنوب الغربي
درجة الحرارة 24°درجة مئوية
الرطوبة 57%
ضغط 1011 hPa
الرؤية 10 كم أو أكثر
غيوم قليلة على ارتفاع 3000 قدم

METAR: LGAV 161950Z 22002KT 9999 FEW030 24/15 Q1011 NOSIG

زمن: 23:14 (20:14 UTC)

توقعات

تاريخ ووقت الإصدار 3ساعات و 14 دقيقة قبل الساعة 17:00UTC
التوقعات صالحة من16 الساعة 18 UTC إلى 17 الساعة 18 UTC
ريح 12 عقدة من الشمال الشرقي
الرؤية 10 كم أو أكثر
غيوم قليلة على ارتفاع 3000 قدم
غيوم متفرقة على ارتفاع 7000 قدم
أصبح
من 16 الساعة 18 UTC إلى 16 الساعة 20 UTC
ريح 3 عقدةمن اتجاهات متغيرة
أصبح
من 17 الساعة 06 UTC إلى 17 الساعة 08 UTC
ريح 15 عقدة من الشمال
أصبح
من 17 الساعة 16 UTC إلى 17 الساعة 18 UTC
ريح 3 عقدةمن اتجاهات متغيرة

TAF: LGAV 161700Z 1618/1718 04012KT 9999 FEW030 SCT070 BECMG 1618/1620 VRB03KT BECMG 1706/1708 36015KT BECMG 1716/1718 VRB03KT

أرصاد الطقس والتوقعات من أكثر من 4000 مطار (تقارير الطقس للمطار METAR والتنبؤ بالطقس بالمطارTAF).

المحطات المتاحة هي النقط الصفراء والحمراء على الخريطة.

حرك المؤشر فوق النقطة لمعرفة اسم المحطة.

ثم انقر لمعرفة أرصاد وتوقعات الطقس.

لتغيير الخارطة: اضغط على الأزرار الخضراء مع رمز الصليب الأسود للتكبير. على الزر الأخضر مع شرطة للتصغير، أو على الأسهم الخضراء للخرائط المجاورة.


METAR-TAF: